Shinkai Maru — JJ4012 — position and weather

sailwx.info

Track history (hours):
 
Tides and Currents Weather Stations Pressure Air Temp Water Temp Dewpoint Dewpoint Depression Visibility Wind Speed Wind Dir Waves Ship Positions

Shinkai Maru

Last reported at 2015-Apr-18 00:23 UTC. Time now 2015-Apr-18 20:50 UTC.
Position N 34°59' E 140°07'.

Length 76 m; draft 4.2 m.

Type: Cargo ship. MMSI: 431301346.

Date/timePositionNaut miles runAvg speedWind from/ knotsBaromVisibWave heightAir tempDewpointWater temp
2015-Apr-18 00:23N 34°59' E 140°07'1011.6
2015-Apr-17 23:33N 35°04' E 140°17'1411.4
2015-Apr-17 22:21N 35°13' E 140°29'1212.0
2015-Apr-17 21:22N 35°23' E 140°37'1011.9
2015-Apr-17 20:33N 35°31' E 140°44'1212.2
2015-Apr-17 19:33N 35°41' E 140°53'1211.1
2015-Apr-17 18:26N 35°53' E 140°53'8 7.9
2015-Apr-17 17:28N 35°58' E 140°47'6 0.2
2015-Apr-16 14:29N 35°56' E 140°40'0 0.0
2015-Apr-16 11:23N 35°56' E 140°40'0 0.0
2015-Apr-16 10:17N 35°56' E 140°40'0 0.0
2015-Apr-16 09:29N 35°56' E 140°40'0 0.3
2015-Apr-16 08:33N 35°55' E 140°40'6 6.1
2015-Apr-16 07:32N 35°54' E 140°47'5811.0
2015-Apr-16 02:13N 35°02' E 140°14'912.5
2015-Apr-16 01:32N 34°57' E 140°05'1712.5
2015-Apr-16 00:09N 34°50' E 139°47'1610.2
2015-Apr-15 22:33N 35°06' E 139°44'1111.3
2015-Apr-15 21:33N 35°17' E 139°45'1010.1
2015-Apr-15 20:33N 35°27' E 139°47'10 9.0
2015-Apr-15 19:25N 35°35' E 139°55'0 0.0
2015-Apr-15 18:31N 35°35' E 139°55'0 0.0
2015-Apr-15 17:12N 35°35' E 139°55'0 0.0
2015-Apr-15 16:22N 35°35' E 139°55'0 0.1
2015-Apr-15 15:32N 35°35' E 139°55'0 0.0
2015-Apr-15 14:34N 35°35' E 139°55'0 0.0
2015-Apr-15 13:33N 35°35' E 139°55'0 0.0
2015-Apr-15 12:33N 35°35' E 139°55'0 0.0
2015-Apr-15 11:32N 35°35' E 139°55'0 0.0
2015-Apr-15 10:32N 35°35' E 139°55'0 0.0
2015-Apr-15 09:28N 35°35' E 139°55'5 5.0
2015-Apr-15 08:33N 35°39' E 139°58'2 1.8
2015-Apr-15 07:28N 35°41' E 139°57'0 0.0
2015-Apr-15 06:31N 35°41' E 139°57'0 0.0
2015-Apr-15 05:28N 35°41' E 139°57'0 0.0
2015-Apr-15 04:13N 35°41' E 139°57'0 0.0
2015-Apr-15 03:31N 35°41' E 139°57'0 0.0
2015-Apr-15 02:31N 35°41' E 139°57'0 0.0
2015-Apr-15 01:11N 35°41' E 139°57'0 0.0
2015-Apr-15 00:31N 35°41' E 139°57'0 0.0
2015-Apr-14 23:22N 35°41' E 139°57'0 0.0
2015-Apr-14 22:28N 35°41' E 139°57'0 0.1
2015-Apr-14 21:31N 35°41' E 139°58'0 0.0
2015-Apr-14 20:31N 35°41' E 139°58'0 0.0
2015-Apr-14 19:31N 35°41' E 139°58'0 0.0
2015-Apr-14 18:25N 35°41' E 139°58'0 0.0
2015-Apr-14 17:31N 35°41' E 139°58'0 0.0
2015-Apr-14 16:31N 35°41' E 139°58'0 0.0
2015-Apr-14 15:28N 35°41' E 139°58'0 0.0
2015-Apr-14 14:31N 35°41' E 139°58'0 0.0
2015-Apr-14 13:31N 35°41' E 139°58'0 0.0
2015-Apr-14 12:28N 35°41' E 139°58'0 0.0
2015-Apr-14 11:31N 35°41' E 139°58'0 0.0
2015-Apr-14 10:28N 35°41' E 139°58'0 0.0
2015-Apr-14 09:31N 35°41' E 139°58'0 0.0
2015-Apr-14 08:31N 35°41' E 139°58'0 0.0
2015-Apr-14 07:28N 35°41' E 139°58'0 0.0
2015-Apr-14 06:31N 35°41' E 139°58'0 0.0
2015-Apr-14 05:25N 35°41' E 139°58'0 0.0
2015-Apr-14 04:28N 35°41' E 139°58'0 0.0
2015-Apr-14 03:31N 35°41' E 139°58'0 0.0
2015-Apr-14 02:31N 35°41' E 139°58'0 0.0
2015-Apr-14 01:25N 35°41' E 139°58'0 0.0
2015-Apr-14 00:31N 35°41' E 139°58'0 0.0
2015-Apr-13 23:28N 35°41' E 139°58'0 0.0
2015-Apr-13 22:31N 35°41' E 139°58'0 0.0
2015-Apr-13 21:19N 35°41' E 139°58'0 0.0
2015-Apr-13 20:28N 35°41' E 139°58'0 0.0
2015-Apr-13 19:31N 35°41' E 139°58'0 0.0
2015-Apr-13 18:31N 35°41' E 139°58'0 0.0
2015-Apr-13 17:28N 35°41' E 139°58'0 0.0
2015-Apr-13 16:28N 35°41' E 139°58'0 0.0
2015-Apr-13 15:31N 35°41' E 139°58'0 0.0
2015-Apr-13 14:31N 35°41' E 139°58'0 0.0
2015-Apr-13 13:28N 35°41' E 139°58'0 0.0
2015-Apr-13 12:25N 35°41' E 139°58'0 0.0
2015-Apr-13 11:25N 35°41' E 139°58'0 0.0
2015-Apr-13 10:31N 35°41' E 139°58'0 0.0
2015-Apr-13 09:28N 35°41' E 139°58'0 0.0
2015-Apr-13 08:28N 35°41' E 139°58'0 0.0
2015-Apr-13 07:31N 35°41' E 139°58'0 0.0
2015-Apr-13 06:31N 35°41' E 139°58'0 0.0
2015-Apr-13 05:25N 35°41' E 139°58'0 0.0
2015-Apr-13 04:25N 35°41' E 139°58'0 0.0
2015-Apr-13 03:25N 35°41' E 139°58'0 0.0
2015-Apr-13 02:31N 35°41' E 139°58'0 0.0
2015-Apr-13 01:31N 35°41' E 139°58'0 0.0
2015-Apr-13 00:28N 35°41' E 139°58'2 2.1
2015-Apr-12 23:33N 35°39' E 139°58'2 2.1
2015-Apr-12 22:28N 35°37' E 139°59'0 0.0
2015-Apr-12 21:28N 35°37' E 139°59'0 0.0
2015-Apr-12 20:22N 35°37' E 139°59'0 0.0
2015-Apr-12 19:22N 35°37' E 139°59'0 0.0
2015-Apr-12 18:28N 35°37' E 139°59'0 0.0
2015-Apr-12 17:28N 35°37' E 139°59'1 0.9
2015-Apr-12 16:33N 35°36' E 139°58'1211.7
2015-Apr-12 15:33N 35°27' E 139°49'1010.5
2015-Apr-12 14:33N 35°17' E 139°46'1110.7
2015-Apr-12 13:33N 35°06' E 139°43'1311.5
2015-Apr-12 12:27N 34°58' E 139°31'228 9.2
2015-Apr-11 11:32N 34°12' E 134°59'1313.2
2015-Apr-11 10:32N 34°26' E 135°00'1111.4
2015-Apr-11 09:32N 34°37' E 134°60'9 0.2
2015-Apr-09 08:05N 34°41' E 134°50'5 9.4
2015-Apr-09 07:32N 34°37' E 134°54'9 9.3
2015-Apr-09 06:33N 34°36' E 135°05'5 4.7
2015-Apr-09 05:32N 34°38' E 135°10'0 0.1
2015-Apr-09 04:26N 34°38' E 135°10'0 0.0
2015-Apr-09 03:26N 34°38' E 135°10'5 5.9
2015-Apr-09 02:33N 34°33' E 135°07'2412.0
2015-Apr-09 00:32N 34°10' E 134°60'  
Track history (hours):
 
Tides and Currents Weather Stations Pressure Air Temp Water Temp Dewpoint Dewpoint Depression Visibility Wind Speed Wind Dir Waves Ship Positions

Shinkai Maru

Last reported at 2015-Apr-18 00:23 UTC. Time now 2015-Apr-18 20:50 UTC.
Position N 34°59' E 140°07'.

Length 76 m; draft 4.2 m.

Type: Cargo ship. MMSI: 431301346.

Date/timePositionNaut miles runAvg speedWind from/ knotsBaromVisibWave heightAir tempDewpointWater temp
2015-Apr-18 00:23N 34°59' E 140°07'1011.6
2015-Apr-17 23:33N 35°04' E 140°17'1411.4
2015-Apr-17 22:21N 35°13' E 140°29'1212.0
2015-Apr-17 21:22N 35°23' E 140°37'1011.9
2015-Apr-17 20:33N 35°31' E 140°44'1212.2
2015-Apr-17 19:33N 35°41' E 140°53'1211.1
2015-Apr-17 18:26N 35°53' E 140°53'8 7.9
2015-Apr-17 17:28N 35°58' E 140°47'6 0.2
2015-Apr-16 14:29N 35°56' E 140°40'0 0.0
2015-Apr-16 11:23N 35°56' E 140°40'0 0.0
2015-Apr-16 10:17N 35°56' E 140°40'0 0.0
2015-Apr-16 09:29N 35°56' E 140°40'0 0.3
2015-Apr-16 08:33N 35°55' E 140°40'6 6.1
2015-Apr-16 07:32N 35°54' E 140°47'5811.0
2015-Apr-16 02:13N 35°02' E 140°14'912.5
2015-Apr-16 01:32N 34°57' E 140°05'1712.5
2015-Apr-16 00:09N 34°50' E 139°47'1610.2
2015-Apr-15 22:33N 35°06' E 139°44'1111.3
2015-Apr-15 21:33N 35°17' E 139°45'1010.1
2015-Apr-15 20:33N 35°27' E 139°47'10 9.0
2015-Apr-15 19:25N 35°35' E 139°55'0 0.0
2015-Apr-15 18:31N 35°35' E 139°55'0 0.0
2015-Apr-15 17:12N 35°35' E 139°55'0 0.0
2015-Apr-15 16:22N 35°35' E 139°55'0 0.1
2015-Apr-15 15:32N 35°35' E 139°55'0 0.0
2015-Apr-15 14:34N 35°35' E 139°55'0 0.0
2015-Apr-15 13:33N 35°35' E 139°55'0 0.0
2015-Apr-15 12:33N 35°35' E 139°55'0 0.0
2015-Apr-15 11:32N 35°35' E 139°55'0 0.0
2015-Apr-15 10:32N 35°35' E 139°55'0 0.0
2015-Apr-15 09:28N 35°35' E 139°55'5 5.0
2015-Apr-15 08:33N 35°39' E 139°58'2 1.8
2015-Apr-15 07:28N 35°41' E 139°57'0 0.0
2015-Apr-15 06:31N 35°41' E 139°57'0 0.0
2015-Apr-15 05:28N 35°41' E 139°57'0 0.0
2015-Apr-15 04:13N 35°41' E 139°57'0 0.0
2015-Apr-15 03:31N 35°41' E 139°57'0 0.0
2015-Apr-15 02:31N 35°41' E 139°57'0 0.0
2015-Apr-15 01:11N 35°41' E 139°57'0 0.0
2015-Apr-15 00:31N 35°41' E 139°57'0 0.0
2015-Apr-14 23:22N 35°41' E 139°57'0 0.0
2015-Apr-14 22:28N 35°41' E 139°57'0 0.1
2015-Apr-14 21:31N 35°41' E 139°58'0 0.0
2015-Apr-14 20:31N 35°41' E 139°58'0 0.0
2015-Apr-14 19:31N 35°41' E 139°58'0 0.0
2015-Apr-14 18:25N 35°41' E 139°58'0 0.0
2015-Apr-14 17:31N 35°41' E 139°58'0 0.0
2015-Apr-14 16:31N 35°41' E 139°58'0 0.0
2015-Apr-14 15:28N 35°41' E 139°58'0 0.0
2015-Apr-14 14:31N 35°41' E 139°58'0 0.0
2015-Apr-14 13:31N 35°41' E 139°58'0 0.0
2015-Apr-14 12:28N 35°41' E 139°58'0 0.0
2015-Apr-14 11:31N 35°41' E 139°58'0 0.0
2015-Apr-14 10:28N 35°41' E 139°58'0 0.0
2015-Apr-14 09:31N 35°41' E 139°58'0 0.0
2015-Apr-14 08:31N 35°41' E 139°58'0 0.0
2015-Apr-14 07:28N 35°41' E 139°58'0 0.0
2015-Apr-14 06:31N 35°41' E 139°58'0 0.0
2015-Apr-14 05:25N 35°41' E 139°58'0 0.0
2015-Apr-14 04:28N 35°41' E 139°58'0 0.0
2015-Apr-14 03:31N 35°41' E 139°58'0 0.0
2015-Apr-14 02:31N 35°41' E 139°58'0 0.0
2015-Apr-14 01:25N 35°41' E 139°58'0 0.0
2015-Apr-14 00:31N 35°41' E 139°58'0 0.0
2015-Apr-13 23:28N 35°41' E 139°58'0 0.0
2015-Apr-13 22:31N 35°41' E 139°58'0 0.0
2015-Apr-13 21:19N 35°41' E 139°58'0 0.0
2015-Apr-13 20:28N 35°41' E 139°58'0 0.0
2015-Apr-13 19:31N 35°41' E 139°58'0 0.0
2015-Apr-13 18:31N 35°41' E 139°58'0 0.0
2015-Apr-13 17:28N 35°41' E 139°58'0 0.0
2015-Apr-13 16:28N 35°41' E 139°58'0 0.0
2015-Apr-13 15:31N 35°41' E 139°58'0 0.0
2015-Apr-13 14:31N 35°41' E 139°58'0 0.0
2015-Apr-13 13:28N 35°41' E 139°58'0 0.0
2015-Apr-13 12:25N 35°41' E 139°58'0 0.0
2015-Apr-13 11:25N 35°41' E 139°58'0 0.0
2015-Apr-13 10:31N 35°41' E 139°58'0 0.0
2015-Apr-13 09:28N 35°41' E 139°58'0 0.0
2015-Apr-13 08:28N 35°41' E 139°58'0 0.0
2015-Apr-13 07:31N 35°41' E 139°58'0 0.0
2015-Apr-13 06:31N 35°41' E 139°58'0 0.0
2015-Apr-13 05:25N 35°41' E 139°58'0 0.0
2015-Apr-13 04:25N 35°41' E 139°58'0 0.0
2015-Apr-13 03:25N 35°41' E 139°58'0 0.0
2015-Apr-13 02:31N 35°41' E 139°58'0 0.0
2015-Apr-13 01:31N 35°41' E 139°58'0 0.0
2015-Apr-13 00:28N 35°41' E 139°58'2 2.1
2015-Apr-12 23:33N 35°39' E 139°58'2 2.1
2015-Apr-12 22:28N 35°37' E 139°59'0 0.0
2015-Apr-12 21:28N 35°37' E 139°59'0 0.0
2015-Apr-12 20:22N 35°37' E 139°59'0 0.0
2015-Apr-12 19:22N 35°37' E 139°59'0 0.0
2015-Apr-12 18:28N 35°37' E 139°59'0 0.0
2015-Apr-12 17:28N 35°37' E 139°59'1 0.9
2015-Apr-12 16:33N 35°36' E 139°58'1211.7
2015-Apr-12 15:33N 35°27' E 139°49'1010.5
2015-Apr-12 14:33N 35°17' E 139°46'1110.7
2015-Apr-12 13:33N 35°06' E 139°43'1311.5
2015-Apr-12 12:27N 34°58' E 139°31'228 9.2
2015-Apr-11 11:32N 34°12' E 134°59'1313.2
2015-Apr-11 10:32N 34°26' E 135°00'1111.4
2015-Apr-11 09:32N 34°37' E 134°60'9 0.2
2015-Apr-09 08:05N 34°41' E 134°50'5 9.4
2015-Apr-09 07:32N 34°37' E 134°54'9 9.3
2015-Apr-09 06:33N 34°36' E 135°05'5 4.7
2015-Apr-09 05:32N 34°38' E 135°10'0 0.1
2015-Apr-09 04:26N 34°38' E 135°10'0 0.0
2015-Apr-09 03:26N 34°38' E 135°10'5 5.9
2015-Apr-09 02:33N 34°33' E 135°07'2412.0
2015-Apr-09 00:32N 34°10' E 134°60'  

Dump ship's entire track history